< Typhoon 195818 1958 Season Typhoon 195820 >
Typhoon 195819 (GRACE)
General InformationTrack Information on Google Maps || Disaster Info.ResourceGoogle EarthGE AnimationAtom FeedGeoJSON
Detalied Best Track (Time Zone = UTC)
Year Month Day Hour Lat. Long. Pressure (hPa) Wind (kt) Class Image Chart
1958 8 27 18 8.0 146.1 1006 0 2 -- Chart
1958 8 28 00 8.5 146.0 1002 0 2 -- Chart
1958 8 28 06 9.1 145.9 1002 0 2 -- Chart
1958 8 28 12 9.9 145.8 1002 0 2 -- Chart
1958 8 28 18 10.4 145.6 1002 0 2 -- Chart
1958 8 29 00 10.5 145.0 1000 0 9 -- Chart
1958 8 29 06 10.9 144.0 996 0 9 -- Chart
1958 8 29 12 11.1 143.0 994 0 9 -- Chart
1958 8 29 18 11.3 142.0 990 0 9 -- Chart
1958 8 30 00 11.8 140.9 985 0 9 -- Chart
1958 8 30 06 12.3 139.9 980 0 9 -- Chart
1958 8 30 12 12.8 138.8 980 0 9 -- Chart
1958 8 30 18 13.4 137.3 975 0 9 -- Chart
1958 8 31 00 14.2 136.4 970 0 9 -- Chart
1958 8 31 06 15.0 135.2 960 0 9 -- Chart
1958 8 31 12 15.5 134.0 960 0 9 -- Chart
1958 8 31 18 15.8 132.5 960 0 9 -- Chart
1958 9 1 00 16.6 131.5 905 0 9 -- Chart
1958 9 1 06 17.2 130.2 910 0 9 -- Chart
1958 9 1 12 17.8 129.1 910 0 9 -- Chart
1958 9 1 18 18.7 128.2 915 0 9 -- Chart
1958 9 2 00 19.8 127.4 920 0 9 -- Chart
1958 9 2 06 20.7 126.3 910 0 9 -- Chart
1958 9 2 12 21.4 125.6 910 0 9 -- Chart
1958 9 2 18 22.3 124.7 915 0 9 -- Chart
1958 9 3 00 23.1 124.2 920 0 9 -- Chart
1958 9 3 06 24.1 123.7 920 0 9 -- Chart
1958 9 3 12 25.0 122.8 920 0 9 -- Chart
1958 9 3 18 25.9 121.9 920 0 9 -- Chart
1958 9 4 00 26.6 120.9 920 0 9 -- Chart
1958 9 4 06 27.1 119.8 970 0 9 -- Chart
1958 9 4 12 27.9 119.5 990 0 9 -- Chart
1958 9 4 18 29.1 119.3 990 0 9 -- Chart
1958 9 5 00 30.2 120.0 994 0 9 -- Chart
1958 9 5 06 31.1 121.0 996 0 9 -- Chart
1958 9 5 12 31.8 122.8 996 0 9 -- Chart
1958 9 5 18 32.5 124.5 998 0 6 -- Chart
1958 9 6 00 33.5 126.0 1000 0 6 -- Chart
1958 9 6 06 35.3 129.1 1002 0 6 -- Chart
1958 9 6 12 37.0 132.1 1002 0 6 -- Chart
1958 9 6 18 39.0 136.9 1002 0 6 -- Chart
1958 9 7 00 40.4 140.8 1005 0 6 -- Chart
1958 9 7 06 39.1 143.9 1005 0 6 -- Chart
1958 9 7 12 39.0 147.8 1006 0 6 -- Chart
1958 9 7 18 39.0 150.9 1006 0 6 -- Chart
1958 9 8 00 39.0 153.0 1007 0 6 -- Chart
1958 9 8 06 40.0 155.0 1006 0 6 -- Chart
1958 9 8 12 39.0 157.0 1006 0 6 -- Chart
1958 9 8 18 38.6 160.0 1006 0 6 -- Chart
1958 9 9 00 38.8 163.8 1008 0 6 -- Chart
1958 9 9 06 39.0 166.9 1006 0 6 -- Chart
1958 9 9 12 39.0 169.0 1008 0 6 -- Chart
Japan Meteorological Agency Best Track Data | Correction Date : 1989-06-01
< Typhoon 195818 1958 Season Typhoon 195820 >

Help